createdAt,value
2023-05-05T18:44:43.367Z,80.96
2023-05-05T18:47:10.282Z,81.23
2023-05-05T18:49:37.499Z,81.67
2023-05-05T18:52:04.487Z,81.82
2023-05-05T18:54:31.682Z,81.98
2023-05-05T18:56:59.225Z,82.34
2023-05-05T18:59:26.297Z,82.76
2023-05-05T19:01:53.308Z,83.20
2023-05-05T19:04:30.574Z,83.72
2023-05-05T19:06:59.570Z,84.02
2023-05-05T19:09:26.564Z,84.19
2023-05-05T19:11:53.409Z,84.22
2023-05-05T19:14:20.272Z,84.05
2023-05-05T19:16:47.292Z,84.47
2023-05-05T19:19:14.341Z,83.92
2023-05-05T19:21:41.456Z,83.61
2023-05-05T19:24:09.405Z,84.03
2023-05-05T19:26:36.376Z,84.26
2023-05-05T19:29:03.244Z,84.68
2023-05-05T19:31:31.154Z,84.98
2023-05-05T19:34:05.263Z,84.98
2023-05-05T19:36:33.597Z,84.87
2023-05-05T19:39:04.711Z,85.36
2023-05-05T19:41:31.606Z,86.17
2023-05-05T19:43:58.616Z,86.51
2023-05-05T19:46:26.675Z,86.60
2023-05-05T19:48:53.743Z,86.67
2023-05-05T19:51:20.666Z,86.94
2023-05-05T19:53:47.568Z,86.94
2023-05-05T19:56:14.623Z,87.53
2023-05-05T19:58:58.897Z,87.51
2023-05-05T20:01:27.527Z,87.86
2023-05-05T20:03:56.350Z,88.23
2023-05-05T20:06:23.562Z,88.49
2023-05-05T20:08:50.552Z,89.12
2023-05-05T20:11:18.154Z,89.51
2023-05-05T20:13:45.192Z,90.20
2023-05-05T20:16:12.203Z,91.04
2023-05-05T20:18:40.147Z,91.78
2023-05-05T20:21:07.143Z,92.13
2023-05-05T20:23:34.202Z,92.11
2023-05-05T20:26:01.584Z,92.48
2023-05-05T20:28:28.510Z,92.74
2023-05-05T20:30:55.379Z,92.40
2023-05-05T20:33:22.234Z,92.21
2023-05-05T20:35:49.133Z,92.61
2023-05-05T20:38:16.038Z,92.98
2023-05-05T20:40:42.879Z,93.29
2023-05-05T20:43:09.718Z,93.71
2023-05-05T20:45:37.087Z,94.08
2023-05-05T20:48:05.608Z,95.09
2023-05-05T20:50:32.660Z,96.02
2023-05-05T20:52:59.643Z,96.30
2023-05-05T20:55:26.649Z,96.91
2023-05-05T20:57:53.576Z,97.42
2023-05-05T21:00:20.494Z,97.86
2023-05-05T21:02:47.816Z,98.13
2023-05-05T21:05:14.831Z,97.71
2023-05-05T21:07:41.671Z,97.98
2023-05-05T21:10:09.785Z,98.24
2023-05-05T21:12:37.198Z,98.54
2023-05-05T21:15:04.462Z,98.99
2023-05-05T21:17:31.354Z,99.53
2023-05-05T21:19:58.323Z,99.70
2023-05-05T21:22:25.199Z,99.74
2023-05-05T21:24:52.216Z,99.32
2023-05-05T21:27:19.913Z,99.41
2023-05-05T21:29:46.890Z,99.10
2023-05-05T21:32:13.801Z,98.03
2023-05-05T21:34:40.748Z,95.77
2023-05-05T21:37:07.808Z,93.71
2023-05-05T21:39:35.349Z,93.23
2023-05-05T21:42:02.517Z,93.55
2023-05-05T21:44:29.551Z,93.55
2023-05-05T21:46:56.471Z,93.48
2023-05-05T21:49:23.414Z,92.55
2023-05-05T21:51:50.418Z,92.82
2023-05-05T21:54:17.262Z,93.02
2023-05-05T21:56:44.292Z,93.64
2023-05-05T21:59:11.239Z,94.17
2023-05-05T22:01:38.115Z,94.64
2023-05-05T22:04:05.186Z,94.80
2023-05-05T22:06:32.550Z,95.42
2023-05-05T22:08:59.403Z,95.61
2023-05-05T22:11:27.337Z,95.76
2023-05-05T22:13:54.255Z,96.09
2023-05-05T22:16:21.175Z,96.34
2023-05-05T22:18:48.070Z,96.61
2023-05-05T22:21:14.978Z,96.70
2023-05-05T22:23:41.923Z,96.73
2023-05-05T22:26:09.733Z,96.57
2023-05-05T22:28:36.715Z,97.00
2023-05-05T22:31:03.688Z,96.81
2023-05-05T22:33:30.628Z,96.88
2023-05-05T22:35:57.521Z,97.38
2023-05-05T22:38:24.331Z,97.59
2023-05-05T22:40:51.182Z,97.78
2023-05-05T22:43:18.094Z,97.67
2023-05-05T22:45:45.265Z,97.57
2023-05-05T22:48:12.117Z,97.44
2023-05-05T22:50:39.051Z,97.19
2023-05-05T22:53:07.470Z,97.26
2023-05-05T22:55:34.394Z,96.39
2023-05-05T22:58:01.254Z,96.56
2023-05-05T23:00:28.285Z,95.53
2023-05-05T23:02:55.493Z,95.48
2023-05-05T23:05:22.399Z,94.79
2023-05-05T23:07:49.331Z,94.46
2023-05-05T23:10:16.347Z,94.03
2023-05-05T23:12:43.266Z,93.63
2023-05-05T23:15:11.196Z,92.65
2023-05-05T23:17:38.337Z,92.89
2023-05-05T23:20:06.310Z,92.57
2023-05-05T23:22:33.090Z,92.58
2023-05-05T23:25:00.114Z,92.84
2023-05-05T23:27:27.087Z,92.56
2023-05-05T23:29:53.943Z,92.48
2023-05-05T23:32:21.322Z,92.92
2023-05-05T23:34:48.153Z,92.19
2023-05-05T23:37:14.955Z,92.83
2023-05-05T23:39:42.370Z,93.08
2023-05-05T23:42:09.273Z,93.08
2023-05-05T23:44:36.483Z,92.07
2023-05-05T23:47:04.242Z,92.31
2023-05-05T23:49:31.064Z,92.07
2023-05-05T23:51:58.468Z,92.43
2023-05-05T23:54:26.095Z,92.59
2023-05-05T23:56:53.009Z,93.43
2023-05-05T23:59:20.097Z,92.71
